createdAt,value
2022-11-28T00:04:43.846Z,100814.06
2022-11-28T00:09:45.690Z,100804.72
2022-11-28T00:14:47.132Z,100818.41
2022-11-28T00:19:48.621Z,100801.19
2022-11-28T00:24:50.081Z,100788.16
2022-11-28T00:29:51.546Z,100784.69
2022-11-28T00:34:53.015Z,100791.28
2022-11-28T00:39:54.475Z,100778.47
2022-11-28T00:44:55.926Z,100787.91
2022-11-28T00:49:57.548Z,100769.72
2022-11-28T00:54:59.001Z,100748.59
2022-11-28T01:00:00.475Z,100747.72
2022-11-28T01:05:01.929Z,100732.69
2022-11-28T01:10:03.493Z,100716.69
2022-11-28T01:15:06.329Z,100712.09
2022-11-28T01:20:08.726Z,100724.28
2022-11-28T01:25:10.183Z,100724.88
2022-11-28T01:30:12.120Z,100705.66
2022-11-28T01:35:13.583Z,100694.94
2022-11-28T01:40:15.039Z,100676.53
2022-11-28T01:45:26.272Z,100685.84
2022-11-28T01:50:28.488Z,100686.81
2022-11-28T01:55:31.776Z,100671.94
2022-11-28T02:00:34.667Z,100657.78
2022-11-28T02:05:36.274Z,100651.63
2022-11-28T02:11:01.679Z,100629.34
2022-11-28T02:16:17.165Z,100628.56
2022-11-28T02:21:24.935Z,100612.81
2022-11-28T02:26:40.792Z,100609.22
2022-11-28T02:32:08.166Z,100613.25
2022-11-28T02:37:15.822Z,100607.97
2022-11-28T02:42:51.646Z,100618.22
2022-11-28T02:48:08.571Z,100607.94
2022-11-28T02:53:13.015Z,100606.81
2022-11-28T02:58:14.480Z,100609.19
2022-11-28T03:03:21.484Z,100605.28
2022-11-28T03:08:37.282Z,100596.69
2022-11-28T03:13:40.053Z,100593.06
2022-11-28T03:18:52.396Z,100581.28
2022-11-28T03:24:01.636Z,100561.88
2022-11-28T03:29:06.729Z,100577.66
2022-11-28T03:34:09.785Z,100573.72
2022-11-28T03:39:13.112Z,100559.09
2022-11-28T03:44:18.375Z,100564.66
2022-11-28T03:49:26.568Z,100565.06
2022-11-28T03:54:32.378Z,100566.84
2022-11-28T03:59:52.825Z,100549.94
2022-11-28T04:05:19.985Z,100556.50
2022-11-28T04:10:31.359Z,100550.97
2022-11-28T04:15:40.634Z,100565.03
2022-11-28T04:20:43.501Z,100544.41
2022-11-28T04:25:48.645Z,100558.81
2022-11-28T04:30:50.586Z,100540.97
2022-11-28T04:35:52.630Z,100529.34
2022-11-28T04:41:00.297Z,100518.56
2022-11-28T04:46:05.910Z,100522.53
2022-11-28T04:51:27.585Z,100515.47
2022-11-28T04:56:31.828Z,100510.94
2022-11-28T05:01:33.348Z,100510.91
2022-11-28T05:06:35.432Z,100519.59
2022-11-28T05:11:36.910Z,100530.78
2022-11-28T05:16:38.409Z,100539.84
2022-11-28T05:21:39.941Z,100522.16
2022-11-28T05:26:41.428Z,100530.16
2022-11-28T05:31:42.972Z,100528.84
2022-11-28T05:36:44.595Z,100526.13
2022-11-28T05:41:46.061Z,100534.75
2022-11-28T05:46:47.510Z,100533.66
2022-11-28T05:51:49.282Z,100521.81
2022-11-28T05:56:51.747Z,100520.78
2022-11-28T06:01:53.355Z,100531.72
2022-11-28T06:06:54.883Z,100528.00
2022-11-28T06:11:56.330Z,100532.69
2022-11-28T06:16:57.884Z,100511.88
2022-11-28T06:21:59.387Z,100526.91
2022-11-28T06:27:00.865Z,100518.41
2022-11-28T06:32:02.403Z,100524.75
2022-11-28T06:37:03.913Z,100506.81
2022-11-28T06:42:05.529Z,100519.75
2022-11-28T06:47:06.975Z,100517.22
2022-11-28T06:52:08.418Z,100508.34
2022-11-28T06:57:09.879Z,100523.06
2022-11-28T07:02:11.454Z,100506.16
2022-11-28T07:07:16.497Z,100533.91
2022-11-28T07:12:18.431Z,100520.06
2022-11-28T07:17:19.885Z,100534.66
2022-11-28T07:22:22.234Z,100542.09
2022-11-28T07:27:23.686Z,100545.25
2022-11-28T07:32:25.174Z,100543.44
2022-11-28T07:37:26.631Z,100546.44
2022-11-28T07:42:28.085Z,100537.44
2022-11-28T07:47:29.532Z,100556.34
2022-11-28T07:52:30.988Z,100553.16
2022-11-28T07:57:32.525Z,100563.19
2022-11-28T08:02:34.608Z,100550.25
2022-11-28T08:07:36.228Z,100549.97
2022-11-28T08:12:37.803Z,100547.56
2022-11-28T08:17:39.828Z,100542.22
2022-11-28T08:22:41.307Z,100550.03
2022-11-28T08:27:42.797Z,100556.88
2022-11-28T08:32:44.238Z,100552.34
2022-11-28T08:37:45.698Z,100560.25
2022-11-28T08:42:47.143Z,100555.78
2022-11-28T08:47:48.612Z,100562.03
2022-11-28T08:52:50.085Z,100560.19
2022-11-28T08:57:51.551Z,100566.84
2022-11-28T09:02:53.015Z,100569.44
2022-11-28T09:07:54.939Z,100572.09
2022-11-28T09:12:56.488Z,100560.50
2022-11-28T09:17:58.095Z,100575.13
2022-11-28T09:22:59.559Z,100574.19
2022-11-28T09:28:01.253Z,100589.25
2022-11-28T09:33:02.717Z,100586.47
2022-11-28T09:38:04.176Z,100584.94
2022-11-28T09:43:28.852Z,100586.06
2022-11-28T09:48:35.004Z,100601.38
2022-11-28T09:53:43.577Z,100591.53
2022-11-28T09:58:59.074Z,100589.81
2022-11-28T10:04:07.393Z,100590.75
2022-11-28T10:09:31.751Z,100593.00
2022-11-28T10:14:57.309Z,100598.31
2022-11-28T10:20:12.106Z,100589.06
2022-11-28T10:25:22.691Z,100595.66
2022-11-28T10:30:25.740Z,100606.53
2022-11-28T10:35:44.402Z,100592.31
2022-11-28T10:40:50.511Z,100586.88
2022-11-28T10:46:16.690Z,100600.56
2022-11-28T10:51:51.796Z,100590.22
2022-11-28T10:57:17.593Z,100594.97
2022-11-28T11:02:38.144Z,100596.59
2022-11-28T11:07:39.625Z,100606.34
2022-11-28T11:12:41.210Z,100596.41
2022-11-28T11:17:42.657Z,100599.38
2022-11-28T11:22:46.127Z,100604.66
2022-11-28T11:27:49.575Z,100600.19
2022-11-28T11:32:51.726Z,100611.56
2022-11-28T11:37:53.437Z,100605.75
2022-11-28T11:42:56.544Z,100607.16
2022-11-28T11:47:58.018Z,100604.22
2022-11-28T11:53:12.876Z,100607.16
2022-11-28T11:58:15.752Z,100606.41
2022-11-28T12:03:45.613Z,100605.00
2022-11-28T12:08:54.608Z,100619.41
2022-11-28T12:13:57.518Z,100599.19
2022-11-28T12:19:19.400Z,100615.72
2022-11-28T12:24:28.731Z,100615.06
2022-11-28T12:29:35.397Z,100623.41
2022-11-28T12:34:53.744Z,100611.22
2022-11-28T12:39:58.986Z,100609.28
2022-11-28T12:45:27.388Z,100620.25
2022-11-28T12:50:43.841Z,100609.47
2022-11-28T12:56:16.756Z,100609.75
2022-11-28T13:01:39.367Z,100609.13
2022-11-28T13:06:51.054Z,100622.78
2022-11-28T13:12:10.929Z,100623.41
2022-11-28T13:17:40.097Z,100622.72
2022-11-28T13:23:09.746Z,100621.16
2022-11-28T13:28:22.195Z,100611.88
2022-11-28T13:33:35.873Z,100621.53
2022-11-28T13:39:11.726Z,100623.69
2022-11-28T13:44:40.709Z,100630.06
2022-11-28T13:49:42.203Z,100637.03
2022-11-28T13:54:45.190Z,100645.50
2022-11-28T13:59:48.832Z,100635.72
2022-11-28T14:04:50.587Z,100641.28
2022-11-28T14:10:24.197Z,100650.31
2022-11-28T14:16:08.002Z,100655.16
2022-11-28T14:21:47.210Z,100648.50
2022-11-28T14:26:48.674Z,100661.38
2022-11-28T14:32:06.977Z,100660.31
2022-11-28T14:37:20.533Z,100667.63
2022-11-28T14:42:58.134Z,100667.44
2022-11-28T14:48:06.396Z,100674.38
2022-11-28T14:53:34.221Z,100694.16
2022-11-28T14:58:35.863Z,100699.25
2022-11-28T15:03:41.836Z,100688.91
2022-11-28T15:08:51.600Z,100695.75
2022-11-28T15:14:04.933Z,100712.06
2022-11-28T15:19:15.621Z,100705.34
2022-11-28T15:24:37.274Z,100716.56
2022-11-28T15:29:38.718Z,100720.41
2022-11-28T15:34:40.613Z,100710.38
2022-11-28T15:39:42.260Z,100718.22
2022-11-28T15:44:43.927Z,100727.25
2022-11-28T15:49:45.648Z,100727.00
2022-11-28T15:54:51.353Z,100732.50
2022-11-28T15:59:52.892Z,100727.84
2022-11-28T16:04:59.482Z,100724.94
2022-11-28T16:10:05.982Z,100736.22
2022-11-28T16:15:07.976Z,100737.25
2022-11-28T16:20:20.482Z,100731.97
2022-11-28T16:25:23.830Z,100739.94
2022-11-28T16:30:25.996Z,100749.63
2022-11-28T16:35:37.726Z,100747.81
2022-11-28T16:40:39.203Z,100746.34
2022-11-28T16:45:40.698Z,100740.72
2022-11-28T16:51:10.589Z,100747.97
2022-11-28T16:56:30.185Z,100758.25
2022-11-28T17:01:31.679Z,100757.97
2022-11-28T17:06:36.834Z,100760.66
2022-11-28T17:12:00.013Z,100762.84
2022-11-28T17:17:01.512Z,100771.41
2022-11-28T17:22:02.983Z,100784.41
2022-11-28T17:27:07.544Z,100789.22
2022-11-28T17:32:13.372Z,100783.38
2022-11-28T17:37:14.917Z,100789.06
2022-11-28T17:42:16.366Z,100794.28
2022-11-28T17:47:17.830Z,100798.88
2022-11-28T17:52:20.389Z,100795.91
2022-11-28T17:57:21.852Z,100792.03
2022-11-28T18:02:23.388Z,100811.03
2022-11-28T18:07:24.882Z,100808.13
2022-11-28T18:12:26.341Z,100809.63
2022-11-28T18:17:27.804Z,100804.72
2022-11-28T18:22:29.279Z,100805.75
2022-11-28T18:27:30.812Z,100816.44
2022-11-28T18:32:32.663Z,100820.81
2022-11-28T18:37:34.138Z,100819.72
2022-11-28T18:42:36.259Z,100823.97
2022-11-28T18:47:37.739Z,100825.66
2022-11-28T18:52:39.306Z,100827.97
2022-11-28T18:57:41.354Z,100825.88
2022-11-28T19:02:42.876Z,100834.63
2022-11-28T19:07:44.417Z,100837.00
2022-11-28T19:12:45.989Z,100830.31
2022-11-28T19:17:47.477Z,100839.25
2022-11-28T19:22:48.939Z,100835.41
2022-11-28T19:27:50.395Z,100833.66
2022-11-28T19:32:51.870Z,100841.00
2022-11-28T19:37:53.374Z,100849.34
2022-11-28T19:42:54.836Z,100852.19
2022-11-28T19:47:56.304Z,100849.19
2022-11-28T19:52:57.775Z,100850.00
2022-11-28T19:57:59.240Z,100853.94
2022-11-28T20:03:00.748Z,100847.81
2022-11-28T20:08:02.307Z,100861.81
2022-11-28T20:13:03.860Z,100863.59
2022-11-28T20:18:05.410Z,100873.72
2022-11-28T20:23:06.870Z,100878.25
2022-11-28T20:28:08.348Z,100883.94
2022-11-28T20:33:09.812Z,100886.44
2022-11-28T20:38:11.274Z,100896.91
2022-11-28T20:43:12.836Z,100897.19
2022-11-28T20:48:14.313Z,100901.59
2022-11-28T20:53:15.781Z,100900.97
2022-11-28T20:58:17.294Z,100909.50
2022-11-28T21:03:18.756Z,100911.44
2022-11-28T21:08:20.241Z,100900.66
2022-11-28T21:13:21.735Z,100910.78
2022-11-28T21:18:23.197Z,100914.50
2022-11-28T21:23:24.688Z,100918.41
2022-11-28T21:28:26.162Z,100917.84
2022-11-28T21:33:27.659Z,100921.16
2022-11-28T21:38:29.638Z,100914.41
2022-11-28T21:43:31.175Z,100920.53
2022-11-28T21:48:33.066Z,100926.84
2022-11-28T21:53:34.545Z,100926.56
2022-11-28T21:58:36.028Z,100926.50
2022-11-28T22:03:37.791Z,100932.06
2022-11-28T22:08:39.308Z,100927.00
2022-11-28T22:13:42.147Z,100932.13
2022-11-28T22:18:43.838Z,100933.13
2022-11-28T22:23:46.181Z,100947.94
2022-11-28T22:28:53.627Z,100932.41
2022-11-28T22:33:55.560Z,100942.28
2022-11-28T22:38:58.510Z,100948.41
2022-11-28T22:44:01.007Z,100948.59
2022-11-28T22:49:02.767Z,100951.34
2022-11-28T22:54:04.518Z,100939.81
2022-11-28T22:59:06.044Z,100945.72
2022-11-28T23:04:07.522Z,100950.25
2022-11-28T23:09:09.503Z,100943.84
2022-11-28T23:14:12.833Z,100949.88
2022-11-28T23:19:15.754Z,100948.66
2022-11-28T23:24:19.111Z,100956.03
2022-11-28T23:29:20.589Z,100952.88
2022-11-28T23:34:22.046Z,100955.34
2022-11-28T23:39:23.530Z,100955.53
2022-11-28T23:44:25.005Z,100954.94
2022-11-28T23:49:26.459Z,100952.66
2022-11-28T23:54:27.919Z,100955.78
2022-11-28T23:59:29.487Z,100960.53
